Time;durP1;ratioP1;P1;durP2;ratioP2;P2;SDS_P1;SDS_P2;PMS_P1;PMS_P2;Temp;Humidity;BMP_temperature;BMP_pressure;BME280_temperature;BME280_humidity;BME280_pressure;Samples;Min_cycle;Max_cycle;Signal;HPM_P1;HPM_P2
2023/04/24 00:00:57;;;;;;;2.78;1.00;;;11.90;99.90;;;;;;5070301;28;20025;-71
2023/04/24 00:03:23;;;;;;;3.45;1.40;;;11.80;99.90;;;;;;5070430;28;20041;-75
2023/04/24 00:05:49;;;;;;;4.07;1.85;;;11.80;99.90;;;;;;5070080;28;20111;-71
2023/04/24 00:08:15;;;;;;;4.28;2.00;;;11.90;99.90;;;;;;5070305;28;20085;-71
2023/04/24 00:10:41;;;;;;;6.30;1.50;;;11.80;99.90;;;;;;5070157;28;20029;-75
2023/04/24 00:13:07;;;;;;;6.32;1.67;;;11.80;99.90;;;;;;5069809;28;20036;-73
2023/04/24 00:15:32;;;;;;;4.63;1.88;;;11.70;99.90;;;;;;5070217;28;20040;-71
2023/04/24 00:17:58;;;;;;;6.27;1.40;;;11.70;99.90;;;;;;5068937;28;20036;-73
2023/04/24 00:20:24;;;;;;;4.77;2.00;;;11.70;99.90;;;;;;5068445;28;20518;-72
2023/04/24 00:22:49;;;;;;;4.73;1.73;;;11.70;99.90;;;;;;5069571;28;20488;-72
2023/04/24 00:25:15;;;;;;;7.27;1.60;;;11.70;99.90;;;;;;5069684;28;20020;-75
2023/04/24 00:27:41;;;;;;;3.17;1.60;;;11.70;99.90;;;;;;5070305;28;20126;-72
2023/04/24 00:30:07;;;;;;;6.17;2.53;;;11.70;99.90;;;;;;5069490;28;20031;-75
2023/04/24 00:32:33;;;;;;;6.85;1.60;;;11.80;99.90;;;;;;5065174;28;20795;-72
2023/04/24 00:34:58;;;;;;;4.67;2.07;;;11.80;99.90;;;;;;5031617;28;20118;-74
2023/04/24 00:37:24;;;;;;;2.77;1.40;;;11.70;99.90;;;;;;5049973;28;20029;-74
2023/04/24 00:39:49;;;;;;;2.40;1.30;;;11.60;99.90;;;;;;5049210;28;20664;-72
2023/04/24 00:42:15;;;;;;;4.03;1.40;;;11.60;99.90;;;;;;5058308;28;20119;-72
2023/04/24 00:44:41;;;;;;;3.27;1.30;;;11.70;99.90;;;;;;5051887;28;20177;-74
2023/04/24 00:47:07;;;;;;;3.30;1.33;;;11.70;99.90;;;;;;5069930;28;20027;-71
2023/04/24 00:49:32;;;;;;;6.75;1.65;;;11.70;99.90;;;;;;5089022;28;20461;-73
2023/04/24 00:51:59;;;;;;;2.73;1.60;;;11.80;99.90;;;;;;5084579;28;20040;-75
2023/04/24 00:54:25;;;;;;;2.65;1.48;;;11.80;99.90;;;;;;5069435;28;20744;-73
2023/04/24 00:56:51;;;;;;;3.17;1.60;;;11.80;99.90;;;;;;5051833;28;20128;-73
2023/04/24 00:59:17;;;;;;;2.78;1.65;;;11.80;99.90;;;;;;5069024;28;20028;-75
2023/04/24 01:01:44;;;;;;;;;;;11.80;99.90;;;;;;5051294;28;20071;-73
2023/04/24 01:04:10;;;;;;;3.28;1.30;;;11.70;99.90;;;;;;5069574;28;19908;-71
2023/04/24 01:06:39;;;;;;;2.83;1.23;;;11.80;99.90;;;;;;5068948;28;20029;-72
2023/04/24 01:09:05;;;;;;;3.38;1.30;;;11.90;99.90;;;;;;5068965;28;20476;-72
2023/04/24 01:11:30;;;;;;;3.57;1.57;;;11.80;99.90;;;;;;5068912;28;20081;-73
2023/04/24 01:13:57;;;;;;;6.13;1.33;;;11.80;99.90;;;;;;5068764;28;20081;-72
2023/04/24 01:16:22;;;;;;;6.15;1.33;;;11.80;99.90;;;;;;5068598;28;20036;-72
2023/04/24 01:18:48;;;;;;;6.87;1.83;;;11.80;99.90;;;;;;5068574;28;20033;-71
2023/04/24 01:21:18;;;;;;;5.37;1.60;;;11.80;99.90;;;;;;5068628;28;20134;-75
2023/04/24 01:23:44;;;;;;;3.13;1.30;;;11.80;99.90;;;;;;5068944;28;20024;-71
2023/04/24 01:26:10;;;;;;;4.68;1.27;;;11.80;99.90;;;;;;5068770;28;20439;-73
2023/04/24 01:28:36;;;;;;;4.07;1.55;;;11.80;99.90;;;;;;5068794;28;20036;-73
2023/04/24 01:31:02;;;;;;;3.80;1.45;;;11.80;99.90;;;;;;5068269;28;20025;-70
2023/04/24 01:33:28;;;;;;;7.93;1.70;;;11.90;99.90;;;;;;5068268;28;20036;-73
2023/04/24 01:35:54;;;;;;;4.57;1.35;;;11.90;99.90;;;;;;5067644;28;20435;-71
2023/04/24 01:38:20;;;;;;;4.05;1.65;;;11.80;99.90;;;;;;5068504;28;20039;-72
2023/04/24 01:40:46;;;;;;;2.57;1.73;;;11.80;99.90;;;;;;5049995;28;20043;-70
2023/04/24 01:43:12;;;;;;;5.65;1.70;;;11.70;99.90;;;;;;5068602;28;20500;-70
2023/04/24 01:45:38;;;;;;;3.80;1.77;;;11.70;99.90;;;;;;5068597;28;20111;-73
2023/04/24 01:48:04;;;;;;;4.27;1.60;;;11.60;99.90;;;;;;5068479;28;20131;-71
2023/04/24 01:50:30;;;;;;;2.45;1.35;;;11.80;99.90;;;;;;5068297;28;20020;-71
2023/04/24 01:52:56;;;;;;;7.60;2.13;;;11.70;99.90;;;;;;5068402;28;20040;-75
2023/04/24 01:55:22;;;;;;;3.17;1.60;;;11.80;99.90;;;;;;5068319;28;20122;-75
2023/04/24 01:57:47;;;;;;;2.30;1.30;;;11.70;99.90;;;;;;5067656;28;20279;-75
2023/04/24 02:00:13;;;;;;;5.83;1.83;;;11.70;99.90;;;;;;5068223;28;20077;-71
2023/04/24 02:02:42;;;;;;;3.50;1.50;;;11.70;99.90;;;;;;5067954;28;20043;-73
2023/04/24 02:05:09;;;;;;;3.75;1.58;;;11.70;99.90;;;;;;5068071;28;20025;-71
2023/04/24 02:07:35;;;;;;;2.45;1.15;;;11.80;99.90;;;;;;5067727;28;20399;-72
2023/04/24 02:10:00;;;;;;;3.93;2.27;;;11.80;99.90;;;;;;5067790;28;20025;-72
2023/04/24 02:12:26;;;;;;;5.00;1.40;;;11.80;99.90;;;;;;5067337;28;20048;-73
2023/04/24 02:14:52;;;;;;;3.80;1.07;;;11.80;99.90;;;;;;5053405;28;20024;-75
2023/04/24 02:17:18;;;;;;;6.57;1.50;;;11.90;99.90;;;;;;5047385;28;20036;-74
2023/04/24 02:19:44;;;;;;;1.88;1.00;;;11.80;99.90;;;;;;5047621;28;20091;-70
2023/04/24 02:22:10;;;;;;;10.00;1.43;;;11.80;99.90;;;;;;5047470;28;20048;-73
2023/04/24 02:24:36;;;;;;;6.83;1.70;;;11.80;99.90;;;;;;5047720;28;20272;-72
2023/04/24 02:27:02;;;;;;;4.05;1.20;;;11.70;99.90;;;;;;5054609;28;20581;-72
2023/04/24 02:29:29;;;;;;;7.40;1.67;;;11.80;99.90;;;;;;5077655;28;20177;-70
2023/04/24 02:31:54;;;;;;;3.10;1.33;;;11.70;99.90;;;;;;5081101;28;20036;-70
2023/04/24 02:34:21;;;;;;;3.43;1.47;;;11.80;99.90;;;;;;5071295;28;20369;-70
2023/04/24 02:36:46;;;;;;;3.55;1.52;;;11.80;99.90;;;;;;5068690;28;20032;-72
2023/04/24 02:39:13;;;;;;;5.70;1.30;;;11.70;99.90;;;;;;5067727;28;20028;-75
2023/04/24 02:41:39;;;;;;;3.65;1.23;;;11.70;99.90;;;;;;5067764;28;20078;-70
2023/04/24 02:44:04;;;;;;;5.17;1.67;;;11.70;99.90;;;;;;5067733;28;20028;-76
2023/04/24 02:46:30;;;;;;;2.27;1.37;;;11.60;99.90;;;;;;5068894;28;20407;-75
2023/04/24 02:48:55;;;;;;;4.43;1.43;;;11.60;99.90;;;;;;5071574;28;20030;-74
2023/04/24 02:51:21;;;;;;;2.27;1.17;;;11.70;99.90;;;;;;5071415;28;20430;-73
2023/04/24 02:53:47;;;;;;;3.10;1.30;;;11.70;99.90;;;;;;5071889;28;20028;-73
2023/04/24 02:56:12;;;;;;;1.63;1.43;;;11.60;99.90;;;;;;5071043;28;20017;-74
2023/04/24 02:58:38;;;;;;;2.10;1.20;;;11.60;99.90;;;;;;5072202;28;20089;-75
2023/04/24 03:01:04;;;;;;;5.67;1.50;;;11.60;99.90;;;;;;5071296;28;20158;-74
2023/04/24 03:03:30;;;;;;;2.90;1.75;;;11.60;99.90;;;;;;5071295;28;20308;-73
2023/04/24 03:05:56;;;;;;;7.13;1.58;;;11.60;99.90;;;;;;5071296;28;20679;-73
2023/04/24 03:08:22;;;;;;;5.90;1.40;;;11.60;99.90;;;;;;5071403;28;20059;-73
2023/04/24 03:10:48;;;;;;;8.63;1.60;;;11.40;99.90;;;;;;5053715;28;20062;-73
2023/04/24 03:13:14;;;;;;;3.37;1.10;;;11.20;99.90;;;;;;5070731;28;20031;-71
2023/04/24 03:15:40;;;;;;;;;;;11.10;99.90;;;;;;5053286;28;20039;-71
2023/04/24 03:18:05;;;;;;;3.38;1.27;;;11.00;99.90;;;;;;5071243;28;19916;-73
2023/04/24 03:20:31;;;;;;;3.77;1.00;;;11.20;99.90;;;;;;5071125;28;20699;-75
2023/04/24 03:22:57;;;;;;;2.03;1.10;;;11.30;99.90;;;;;;5052568;28;20093;-74
2023/04/24 03:25:22;;;;;;;3.83;1.20;;;11.40;99.90;;;;;;5070795;28;20028;-73
2023/04/24 03:27:48;;;;;;;4.97;1.20;;;11.50;99.90;;;;;;5052846;28;20408;-75
2023/04/24 03:30:13;;;;;;;6.70;1.53;;;11.60;99.90;;;;;;5070861;28;20028;-75
2023/04/24 03:32:39;;;;;;;6.43;1.60;;;11.60;99.90;;;;;;5070947;28;20036;-73
2023/04/24 03:35:07;;;;;;;3.20;1.07;;;11.60;99.90;;;;;;5071274;28;20051;-75
2023/04/24 03:37:33;;;;;;;6.32;1.10;;;11.60;99.90;;;;;;5070306;28;20503;-71
2023/04/24 03:39:58;;;;;;;4.70;1.37;;;11.60;99.90;;;;;;5070981;28;20020;-75
2023/04/24 03:42:24;;;;;;;3.97;1.17;;;11.50;99.90;;;;;;5070616;28;20040;-74
2023/04/24 03:44:50;;;;;;;5.43;1.47;;;11.50;99.90;;;;;;5071038;28;20104;-76
2023/04/24 03:47:15;;;;;;;3.70;1.53;;;11.30;99.90;;;;;;5070364;28;20031;-75
2023/04/24 03:49:41;;;;;;;2.67;1.50;;;11.20;99.90;;;;;;5070512;28;20086;-76
2023/04/24 03:52:06;;;;;;;3.30;1.50;;;11.30;99.90;;;;;;5070291;28;20468;-75
2023/04/24 03:54:32;;;;;;;4.77;1.93;;;11.20;99.90;;;;;;5070310;28;20089;-72
2023/04/24 03:56:57;;;;;;;4.83;1.73;;;11.20;99.90;;;;;;5071042;28;20028;-73
2023/04/24 03:59:23;;;;;;;5.37;1.50;;;11.30;99.90;;;;;;5070084;28;20494;-75
2023/04/24 04:01:49;;;;;;;3.33;1.37;;;11.30;99.90;;;;;;5071221;28;20076;-76
2023/04/24 04:04:14;;;;;;;5.50;1.67;;;11.40;99.90;;;;;;5070912;28;20042;-74
2023/04/24 04:06:40;;;;;;;6.20;1.73;;;11.30;99.90;;;;;;5070595;28;20103;-71
2023/04/24 04:09:06;;;;;;;6.03;1.43;;;11.40;99.90;;;;;;5070980;28;20032;-75
2023/04/24 04:11:32;;;;;;;5.10;1.88;;;11.30;99.90;;;;;;5082527;28;20021;-69
2023/04/24 04:13:58;;;;;;;6.50;1.90;;;11.40;99.90;;;;;;5085112;28;20025;-68
2023/04/24 04:16:24;;;;;;;7.00;1.87;;;11.30;99.90;;;;;;5073512;28;20524;-73
2023/04/24 04:18:49;;;;;;;3.70;1.70;;;11.30;99.90;;;;;;5061840;28;20033;-74
2023/04/24 04:21:15;;;;;;;9.80;1.67;;;11.40;99.90;;;;;;5055401;28;20032;-73
2023/04/24 04:23:41;;;;;;;5.13;1.77;;;11.40;99.90;;;;;;5070171;28;20550;-75
2023/04/24 04:26:07;;;;;;;4.38;2.03;;;11.40;99.90;;;;;;5069911;28;20120;-72
2023/04/24 04:28:33;;;;;;;6.07;2.33;;;11.30;99.90;;;;;;5069573;28;20114;-76
2023/04/24 04:30:59;;;;;;;5.07;1.87;;;11.40;99.90;;;;;;5069577;28;20032;-73
2023/04/24 04:33:25;;;;;;;4.20;2.00;;;11.40;99.90;;;;;;5069981;28;20040;-74
2023/04/24 04:35:56;;;;;;;;;;;11.40;99.90;;;;;;5070346;28;20155;-75
2023/04/24 04:38:22;;;;;;;9.13;2.30;;;11.20;99.90;;;;;;5069867;28;20437;-74
2023/04/24 04:40:47;;;;;;;8.15;2.80;;;11.10;99.90;;;;;;5053509;28;20056;-71
2023/04/24 04:43:14;;;;;;;3.73;2.53;;;11.10;99.90;;;;;;5049430;28;20094;-74
2023/04/24 04:45:42;;;;;;;4.95;2.97;;;11.10;99.90;;;;;;5049471;28;20037;-74
2023/04/24 04:48:08;;;;;;;5.13;3.00;;;11.00;99.90;;;;;;5049427;28;20446;-73
2023/04/24 04:50:35;;;;;;;8.77;3.72;;;11.10;99.90;;;;;;5050434;28;20056;-74
2023/04/24 04:53:00;;;;;;;9.75;3.20;;;11.10;99.90;;;;;;5069292;28;20113;-74
2023/04/24 04:55:26;;;;;;;8.00;3.30;;;11.10;99.90;;;;;;5069361;28;20491;-74
2023/04/24 04:57:52;;;;;;;4.60;2.47;;;11.10;99.90;;;;;;5068923;28;20051;-74
2023/04/24 05:00:18;;;;;;;6.07;2.90;;;11.20;99.90;;;;;;5069073;28;20055;-74
2023/04/24 05:02:43;;;;;;;6.73;3.33;;;11.30;99.90;;;;;;5068819;28;20872;-76
2023/04/24 05:05:09;;;;;;;6.67;2.50;;;11.30;99.90;;;;;;5068548;28;20025;-73
2023/04/24 05:07:35;;;;;;;10.23;2.65;;;11.30;99.90;;;;;;5069000;28;20041;-75
2023/04/24 05:10:01;;;;;;;8.33;2.57;;;11.40;99.90;;;;;;5067736;28;20048;-71
2023/04/24 05:12:27;;;;;;;3.83;2.47;;;11.30;99.90;;;;;;5068649;28;20120;-71
2023/04/24 05:14:53;;;;;;;36.90;3.27;;;11.30;99.90;;;;;;5069118;28;20107;-72
2023/04/24 05:17:18;;;;;;;4.93;2.40;;;11.30;99.90;;;;;;5068745;28;20099;-71
2023/04/24 05:19:44;;;;;;;7.23;3.53;;;11.30;99.90;;;;;;5050984;28;20271;-73
2023/04/24 05:22:11;;;;;;;11.00;2.63;;;11.30;99.90;;;;;;5068734;28;20404;-71
2023/04/24 05:24:36;;;;;;;;;;;11.30;99.90;;;;;;5069281;28;20046;-76
2023/04/24 05:27:04;;;;;;;10.52;2.10;;;11.30;99.90;;;;;;5068698;28;19991;-75
2023/04/24 05:29:31;;;;;;;7.68;2.78;;;11.30;99.90;;;;;;5068533;28;20029;-74
2023/04/24 05:31:57;;;;;;;11.93;5.07;;;11.30;99.90;;;;;;5050698;28;20086;-72
2023/04/24 05:34:23;;;;;;;6.10;2.30;;;11.30;99.90;;;;;;5068806;28;20106;-72
2023/04/24 05:36:48;;;;;;;5.60;2.90;;;11.40;99.90;;;;;;5068711;28;20036;-72
2023/04/24 05:39:15;;;;;;;4.07;2.43;;;11.20;99.90;;;;;;5068684;28;20059;-74
2023/04/24 05:41:40;;;;;;;6.55;2.85;;;11.10;99.90;;;;;;5068755;28;20044;-77
2023/04/24 05:44:06;;;;;;;7.40;2.90;;;11.20;99.90;;;;;;5068138;28;20492;-72
2023/04/24 05:46:31;;;;;;;7.33;2.60;;;11.30;99.90;;;;;;5068539;28;20036;-75
2023/04/24 05:48:57;;;;;;;6.43;3.30;;;11.30;99.90;;;;;;5068688;28;20500;-73
2023/04/24 05:51:23;;;;;;;5.73;2.97;;;11.30;99.90;;;;;;5069506;28;20483;-73
2023/04/24 05:53:49;;;;;;;7.72;2.72;;;11.40;99.90;;;;;;5086307;28;20028;-72
2023/04/24 05:56:15;;;;;;;7.73;2.70;;;11.40;99.90;;;;;;5087059;28;20033;-78
2023/04/24 05:58:41;;;;;;;9.30;2.90;;;11.40;99.90;;;;;;5073705;28;20026;-75
2023/04/24 06:01:06;;;;;;;4.60;2.70;;;11.40;99.90;;;;;;5072034;28;20025;-71
2023/04/24 06:03:32;;;;;;;10.93;3.00;;;11.70;99.90;;;;;;5069722;28;20527;-71
2023/04/24 06:05:58;;;;;;;10.47;2.60;;;11.70;99.90;;;;;;5068554;28;20643;-76
2023/04/24 06:08:24;;;;;;;6.47;2.43;;;11.90;99.90;;;;;;5050721;28;20279;-75
2023/04/24 06:10:50;;;;;;;5.00;2.53;;;11.90;99.90;;;;;;5068519;28;20530;-72
2023/04/24 06:13:15;;;;;;;7.55;2.20;;;12.00;99.90;;;;;;5067923;28;20028;-72
2023/04/24 06:15:41;;;;;;;10.43;2.73;;;12.20;99.90;;;;;;5053914;28;20037;-73
2023/04/24 06:18:07;;;;;;;7.82;2.00;;;12.30;99.90;;;;;;5047807;28;20275;-73
2023/04/24 06:20:33;;;;;;;4.03;2.00;;;12.20;99.90;;;;;;5054282;28;20531;-74
2023/04/24 06:22:58;;;;;;;7.40;2.23;;;12.40;99.90;;;;;;5067555;28;20331;-71
2023/04/24 06:25:28;;;;;;;2.97;1.83;;;12.40;99.90;;;;;;5068032;28;20112;-73
2023/04/24 06:27:54;;;;;;;6.80;2.65;;;12.50;99.90;;;;;;5067419;28;20036;-75
2023/04/24 06:30:20;;;;;;;4.90;2.00;;;12.40;99.90;;;;;;5067591;28;20016;-69
2023/04/24 06:32:45;;;;;;;2.67;1.73;;;14.40;99.90;;;;;;5067603;28;20035;-74
2023/04/24 06:35:12;;;;;;;4.47;1.70;;;15.90;99.90;;;;;;5067289;28;20488;-73
2023/04/24 06:37:41;;;;;;;2.95;1.92;;;16.60;99.90;;;;;;5067195;28;20492;-72
2023/04/24 06:40:07;;;;;;;9.10;2.10;;;16.60;99.90;;;;;;5067728;28;20035;-72
2023/04/24 06:42:33;;;;;;;7.07;2.10;;;17.10;99.90;;;;;;5067291;28;20086;-71
2023/04/24 06:44:59;;;;;;;8.07;2.23;;;16.40;99.90;;;;;;5047940;28;20032;-72
2023/04/24 06:47:24;;;;;;;6.75;1.67;;;17.20;99.90;;;;;;5068109;28;20032;-74
2023/04/24 06:49:52;;;;;;;5.73;1.57;;;17.30;99.90;;;;;;5067416;28;20044;-70
2023/04/24 06:52:18;;;;;;;5.38;2.55;;;17.40;99.90;;;;;;5067317;28;20040;-73
2023/04/24 06:54:44;;;;;;;3.20;1.30;;;16.30;99.90;;;;;;5067502;28;20021;-71
2023/04/24 06:57:10;;;;;;;7.53;2.23;;;16.30;99.90;;;;;;5066030;28;20082;-72
2023/04/24 06:59:36;;;;;;;2.40;1.40;;;17.60;99.90;;;;;;5067996;28;20024;-74
2023/04/24 07:02:02;;;;;;;7.18;1.80;;;19.10;99.60;;;;;;5067451;28;20029;-72
2023/04/24 07:04:27;;;;;;;6.17;1.50;;;19.30;96.10;;;;;;5068235;28;20024;-71
2023/04/24 07:06:57;;;;;;;3.17;1.50;;;19.00;96.00;;;;;;5067902;28;20263;-73
2023/04/24 07:09:25;;;;;;;7.25;1.60;;;18.50;95.70;;;;;;5067544;28;20051;-74
2023/04/24 07:11:51;;;;;;;5.85;2.40;;;19.20;94.90;;;;;;5067551;28;20036;-75
2023/04/24 07:14:17;;;;;;;;;;;19.40;94.30;;;;;;5068197;28;20051;-73
2023/04/24 07:16:43;;;;;;;4.57;1.65;;;18.90;93.50;;;;;;5066932;28;20593;-75
2023/04/24 07:19:09;;;;;;;4.38;1.52;;;18.10;95.00;;;;;;5066710;28;20036;-70
2023/04/24 07:21:34;;;;;;;8.32;2.35;;;19.40;93.80;;;;;;5066862;28;20040;-73
2023/04/24 07:24:00;;;;;;;6.00;1.60;;;18.80;93.20;;;;;;5067824;28;20029;-75
2023/04/24 07:26:28;;;;;;;4.20;1.70;;;17.70;94.20;;;;;;5067733;28;20078;-74
2023/04/24 07:28:53;;;;;;;3.10;1.27;;;17.90;96.80;;;;;;5049499;28;20036;-74
2023/04/24 07:31:19;;;;;;;5.15;1.70;;;16.80;95.60;;;;;;5067330;28;20036;-69
2023/04/24 07:33:45;;;;;;;2.67;1.30;;;16.70;95.80;;;;;;5082619;28;20040;-70
2023/04/24 07:36:15;;;;;;;7.10;1.90;;;16.90;96.70;;;;;;5080146;28;20255;-70
2023/04/24 07:38:50;;;;;;;3.28;1.50;;;16.20;98.20;;;;;;5071751;28;20748;-71
2023/04/24 07:41:15;;;;;;;11.15;2.08;;;17.20;95.20;;;;;;5053158;28;20032;-74
2023/04/24 07:43:41;;;;;;;5.17;1.60;;;17.20;93.70;;;;;;5070692;28;20037;-74
2023/04/24 07:46:08;;;;;;;8.25;2.10;;;16.70;95.90;;;;;;5052476;28;20025;-75
2023/04/24 07:48:34;;;;;;;6.30;1.90;;;17.00;93.90;;;;;;5070469;28;20111;-75
2023/04/24 07:50:59;;;;;;;8.00;1.80;;;18.30;93.50;;;;;;5070415;28;20104;-74
2023/04/24 07:53:25;;;;;;;6.60;1.80;;;20.50;88.80;;;;;;5070232;28;20021;-74
2023/04/24 07:55:51;;;;;;;5.05;1.67;;;19.30;85.00;;;;;;5070266;28;20454;-75
2023/04/24 07:58:16;;;;;;;3.37;1.93;;;17.60;89.90;;;;;;5069917;28;20032;-74
2023/04/24 08:00:42;;;;;;;4.87;1.73;;;16.50;88.30;;;;;;5052128;28;20503;-74
2023/04/24 08:03:07;;;;;;;4.57;1.67;;;19.70;91.50;;;;;;5069985;28;20064;-73
2023/04/24 08:05:33;;;;;;;1.87;1.43;;;18.40;87.60;;;;;;5070136;28;20111;-69
2023/04/24 08:07:59;;;;;;;6.90;1.98;;;18.40;90.20;;;;;;5070541;28;20514;-72
2023/04/24 08:10:25;;;;;;;5.22;2.00;;;18.20;84.50;;;;;;5052565;28;20028;-70
2023/04/24 08:12:51;;;;;;;3.22;2.13;;;17.60;89.00;;;;;;5052295;28;20096;-70
2023/04/24 08:15:17;;;;;;;5.30;2.00;;;19.50;87.40;;;;;;5058255;28;20044;-73
2023/04/24 08:17:43;;;;;;;3.47;1.95;;;22.40;73.50;;;;;;5049927;28;20029;-71
2023/04/24 08:20:13;;;;;;;5.00;2.15;;;24.20;71.30;;;;;;5061004;28;20044;-71
2023/04/24 08:22:42;;;;;;;5.30;2.40;;;24.50;68.60;;;;;;5070190;28;20055;-72
2023/04/24 08:25:09;;;;;;;7.35;2.45;;;25.20;67.20;;;;;;5069953;28;20021;-71
2023/04/24 08:27:36;;;;;;;6.03;1.83;;;25.80;65.50;;;;;;5070828;28;20043;-70
2023/04/24 08:30:03;;;;;;;1.73;1.50;;;22.60;65.80;;;;;;5070321;28;20036;-71
2023/04/24 08:32:29;;;;;;;4.72;1.70;;;24.20;69.30;;;;;;5069780;28;20035;-73
2023/04/24 08:34:56;;;;;;;2.97;1.48;;;24.10;68.40;;;;;;5069521;28;20032;-72
2023/04/24 08:37:26;;;;;;;2.67;1.45;;;21.10;67.20;;;;;;5069414;28;20039;-75
2023/04/24 08:39:51;;;;;;;5.22;1.60;;;19.60;74.90;;;;;;5069525;28;20033;-75
2023/04/24 08:42:18;;;;;;;2.45;1.42;;;18.50;75.10;;;;;;5069479;28;20037;-70
2023/04/24 08:44:44;;;;;;;5.93;1.60;;;18.50;78.50;;;;;;5050970;28;20051;-71
2023/04/24 08:47:10;;;;;;;7.80;1.95;;;18.40;79.30;;;;;;5069288;28;20032;-71
2023/04/24 08:49:38;;;;;;;6.03;2.00;;;18.30;78.10;;;;;;5067257;28;20090;-73
2023/04/24 08:52:04;;;;;;;7.70;2.17;;;17.90;77.90;;;;;;5059540;28;20028;-75
2023/04/24 08:54:31;;;;;;;5.60;1.40;;;17.70;78.80;;;;;;5069614;28;20066;-75
2023/04/24 08:57:03;;;;;;;5.93;2.00;;;17.90;78.20;;;;;;5068947;28;20111;-76
2023/04/24 08:59:30;;;;;;;4.35;1.55;;;20.60;72.40;;;;;;5049275;28;20506;-75
2023/04/24 09:01:56;;;;;;;5.03;1.67;;;20.10;72.10;;;;;;5048741;28;20044;-74
2023/04/24 09:04:24;;;;;;;8.68;2.25;;;19.30;76.90;;;;;;5049080;28;20058;-76
2023/04/24 09:06:51;;;;;;;2.47;1.55;;;23.40;72.10;;;;;;5048790;28;20035;-72
2023/04/24 09:09:18;;;;;;;3.22;1.67;;;22.70;68.80;;;;;;5053496;28;20009;-71
2023/04/24 09:11:44;;;;;;;5.43;1.70;;;25.60;66.00;;;;;;5062056;28;20018;-72
2023/04/24 09:14:10;;;;;;;7.50;2.10;;;24.30;58.70;;;;;;5054532;28;20072;-73
2023/04/24 09:16:36;;;;;;;4.43;1.98;;;21.60;65.00;;;;;;5049603;28;20028;-71
2023/04/24 09:19:03;;;;;;;3.55;1.50;;;21.30;66.70;;;;;;5055300;28;20044;-74
2023/04/24 09:21:32;;;;;;;;;;;20.20;68.10;;;;;;5070209;28;20543;-76
2023/04/24 09:24:06;;;;;;;6.88;2.10;;;21.20;70.00;;;;;;5068664;28;19912;-76
2023/04/24 09:26:35;;;;;;;6.53;1.67;;;19.90;65.20;;;;;;5068758;28;20029;-75
2023/04/24 09:29:02;;;;;;;2.58;1.50;;;20.20;65.50;;;;;;5069048;28;20051;-76
2023/04/24 09:31:29;;;;;;;3.78;2.03;;;19.30;68.50;;;;;;5068681;28;20029;-77
2023/04/24 09:33:58;;;;;;;4.53;1.58;;;19.20;67.90;;;;;;5050281;28;20515;-75
2023/04/24 09:36:38;;;;;;;3.75;1.83;;;19.40;70.90;;;;;;5050774;28;20056;-73
2023/04/24 09:39:15;;;;;;;5.35;1.90;;;23.60;65.80;;;;;;5068817;28;20016;-73
2023/04/24 09:41:43;;;;;;;3.85;1.33;;;25.80;61.50;;;;;;5050797;28;20119;-75
2023/04/24 09:44:13;;;;;;;3.47;1.60;;;23.10;57.70;;;;;;5050515;28;20115;-73
2023/04/24 09:46:40;;;;;;;3.55;1.95;;;24.20;62.10;;;;;;5068284;28;20017;-74
2023/04/24 09:49:20;;;;;;;4.47;1.80;;;22.80;59.90;;;;;;5068209;28;20373;-76
2023/04/24 09:51:45;;;;;;;5.20;1.80;;;26.70;58.60;;;;;;5050427;28;20055;-73
2023/04/24 09:54:17;;;;;;;3.05;1.80;;;27.40;56.30;;;;;;5068098;28;20499;-75
2023/04/24 09:56:47;;;;;;;5.97;1.80;;;27.90;52.50;;;;;;5067398;28;20040;-77
2023/04/24 09:59:14;;;;;;;5.13;1.33;;;28.00;55.70;;;;;;5067974;28;20032;-77
2023/04/24 10:01:44;;;;;;;3.42;1.27;;;23.90;57.40;;;;;;5062643;28;20037;-78
2023/04/24 10:04:20;;;;;;;4.80;1.67;;;21.90;58.40;;;;;;5047689;28;20021;-78
2023/04/24 10:06:48;;;;;;;2.78;1.48;;;27.00;53.60;;;;;;5048213;28;20025;-76
2023/04/24 10:09:15;;;;;;;5.20;1.55;;;27.50;53.10;;;;;;5048162;28;20033;-73
2023/04/24 10:11:46;;;;;;;3.75;1.90;;;28.70;54.10;;;;;;5047955;28;20033;-73
2023/04/24 10:14:17;;;;;;;4.10;1.35;;;29.60;49.30;;;;;;5051454;28;20546;-76
2023/04/24 10:16:44;;;;;;;3.47;1.73;;;30.80;51.70;;;;;;5068000;28;20040;-76
2023/04/24 10:19:11;;;;;;;2.42;1.30;;;30.80;50.40;;;;;;5067490;28;20039;-74
2023/04/24 10:21:42;;;;;;;1.92;1.20;;;29.40;51.00;;;;;;5050312;28;20414;-73
2023/04/24 10:24:10;;;;;;;2.55;1.50;;;29.70;49.00;;;;;;5068150;28;20111;-78
2023/04/24 10:26:37;;;;;;;1.60;1.40;;;30.30;49.70;;;;;;5050157;28;20415;-75
2023/04/24 10:29:09;;;;;;;1.63;1.23;;;30.10;47.30;;;;;;5067653;28;20507;-79
2023/04/24 10:31:36;;;;;;;3.70;1.35;;;28.20;49.80;;;;;;5068063;28;20044;-78
2023/04/24 10:34:03;;;;;;;2.78;1.40;;;29.90;48.50;;;;;;5049308;28;20454;-74
2023/04/24 10:36:32;;;;;;;5.28;1.20;;;31.10;47.90;;;;;;5068100;28;20025;-76
2023/04/24 10:38:59;;;;;;;1.35;1.15;;;32.60;51.50;;;;;;5067829;28;20035;-78
2023/04/24 10:41:26;;;;;;;2.58;1.40;;;32.30;47.40;;;;;;5066980;28;20111;-77
2023/04/24 10:44:13;;;;;;;2.30;1.20;;;25.80;50.30;;;;;;5067711;28;20111;-73
2023/04/24 10:46:42;;;;;;;3.70;1.65;;;23.20;56.00;;;;;;5077413;28;20025;-78
2023/04/24 10:49:08;;;;;;;5.00;1.38;;;22.10;58.00;;;;;;5084268;28;20410;-73
2023/04/24 10:52:06;;;;;;;3.25;1.10;;;21.70;58.00;;;;;;5074984;28;20504;-77
2023/04/24 10:54:45;;;;;;;4.68;1.38;;;21.20;61.00;;;;;;5040157;28;20166;-72
2023/04/24 10:57:20;;;;;;;2.47;1.40;;;20.40;60.70;;;;;;5048086;28;20079;-74
2023/04/24 10:59:47;;;;;;;3.05;1.33;;;20.40;62.50;;;;;;5056214;28;20484;-75
2023/04/24 11:02:17;;;;;;;3.25;1.33;;;20.10;58.90;;;;;;5067816;28;20040;-73
2023/04/24 11:04:44;;;;;;;2.45;1.48;;;20.30;63.40;;;;;;5067522;28;20449;-78
2023/04/24 11:07:10;;;;;;;3.28;1.77;;;20.80;62.00;;;;;;5068793;28;20035;-73
2023/04/24 11:09:37;;;;;;;4.30;1.75;;;20.60;67.10;;;;;;5071453;28;20052;-78
2023/04/24 11:12:07;;;;;;;3.40;1.63;;;20.10;62.10;;;;;;5071185;28;20047;-78
2023/04/24 11:14:59;;;;;;;3.83;1.58;;;20.50;64.60;;;;;;5071130;28;20028;-76
2023/04/24 11:17:55;;;;;;;4.22;1.60;;;21.30;64.20;;;;;;5071029;28;20025;-78
2023/04/24 11:20:25;;;;;;;4.65;1.70;;;21.10;61.70;;;;;;5070115;28;20048;-76
2023/04/24 11:22:54;;;;;;;4.95;1.63;;;20.00;60.50;;;;;;5052724;28;20036;-76
2023/04/24 11:25:22;;;;;;;4.75;1.70;;;19.20;65.40;;;;;;5070551;28;20127;-77
2023/04/24 11:27:49;;;;;;;3.83;1.30;;;19.80;65.60;;;;;;5071183;28;20032;-77
2023/04/24 11:30:20;;;;;;;3.28;1.70;;;20.30;64.70;;;;;;5053256;28;20078;-74
2023/04/24 11:32:50;;;;;;;4.82;1.80;;;19.00;64.40;;;;;;5070845;28;20032;-77
2023/04/24 11:35:20;;;;;;;5.63;1.77;;;19.60;66.00;;;;;;5071014;28;20067;-76
2023/04/24 11:37:51;;;;;;;5.57;1.58;;;20.20;65.40;;;;;;5070486;28;20043;-79
2023/04/24 11:40:22;;;;;;;4.78;1.55;;;20.60;63.40;;;;;;5070691;28;20086;-78
2023/04/24 11:42:50;;;;;;;4.18;1.23;;;20.80;64.20;;;;;;5070677;28;20135;-75
2023/04/24 11:45:22;;;;;;;5.07;1.88;;;20.40;60.80;;;;;;5070442;28;20095;-73
2023/04/24 11:47:48;;;;;;;3.05;1.50;;;20.70;62.60;;;;;;5050853;28;20055;-78
2023/04/24 11:50:15;;;;;;;3.42;1.73;;;20.40;64.30;;;;;;5050525;28;20033;-73
2023/04/24 11:52:43;;;;;;;5.38;1.20;;;21.10;66.40;;;;;;5050526;28;20063;-75
2023/04/24 11:55:15;;;;;;;4.93;1.52;;;21.40;62.70;;;;;;5050626;28;20484;-76
2023/04/24 11:57:45;;;;;;;5.38;1.50;;;21.60;58.10;;;;;;5050935;28;20071;-76
2023/04/24 12:00:21;;;;;;;3.38;1.90;;;21.30;62.80;;;;;;5050427;28;20021;-77
2023/04/24 12:02:47;;;;;;;3.27;1.40;;;21.40;56.30;;;;;;5050352;28;20040;-78
2023/04/24 12:05:24;;;;;;;2.47;1.35;;;20.40;60.80;;;;;;5050292;28;20632;-79
2023/04/24 12:07:50;;;;;;;3.53;1.45;;;20.10;61.40;;;;;;5050359;28;20540;-79
2023/04/24 12:10:21;;;;;;;1.85;1.27;;;19.80;61.70;;;;;;5050773;28;20112;-75
2023/04/24 12:12:46;;;;;;;2.55;1.27;;;19.70;63.00;;;;;;5050413;28;20040;-74
2023/04/24 12:15:12;;;;;;;2.42;1.58;;;19.50;63.30;;;;;;5051291;28;20032;-78
2023/04/24 12:17:45;;;;;;;4.93;1.50;;;19.90;60.80;;;;;;5051161;28;20090;-78
2023/04/24 12:20:11;;;;;;;4.15;1.40;;;19.50;61.20;;;;;;5049604;28;20027;-76
2023/04/24 12:22:46;;;;;;;;;;;20.00;59.30;;;;;;5050070;28;20041;-75
2023/04/24 12:25:13;;;;;;;3.65;1.30;;;19.40;60.20;;;;;;5050093;28;19991;-76
2023/04/24 12:27:38;;;;;;;4.22;1.63;;;19.90;61.60;;;;;;5050297;28;20551;-76
2023/04/24 12:30:09;;;;;;;4.07;1.43;;;20.00;58.80;;;;;;5052796;28;20041;-75
2023/04/24 12:32:35;;;;;;;2.67;1.40;;;19.90;59.70;;;;;;5074541;28;20010;-75
2023/04/24 12:35:00;;;;;;;3.63;1.40;;;20.30;63.90;;;;;;5057813;28;20090;-71
2023/04/24 12:37:32;;;;;;;4.37;1.60;;;20.80;61.90;;;;;;5050403;28;20473;-77
2023/04/24 12:40:08;;;;;;;4.82;1.80;;;20.60;61.80;;;;;;5050094;28;20064;-76
2023/04/24 12:42:35;;;;;;;2.50;1.45;;;20.90;63.50;;;;;;5049768;28;20069;-75
2023/04/24 12:45:06;;;;;;;2.70;1.40;;;20.30;60.40;;;;;;5065118;28;20103;-78
2023/04/24 12:47:32;;;;;;;4.18;1.40;;;20.30;61.30;;;;;;5069458;28;20028;-76